createdAt,value
2023-03-27T00:01:35.097Z,5.64
2023-03-27T00:04:09.446Z,5.59
2023-03-27T00:06:39.383Z,5.60
2023-03-27T00:09:12.193Z,5.56
2023-03-27T00:11:42.442Z,5.50
2023-03-27T00:14:12.331Z,5.45
2023-03-27T00:16:42.373Z,5.35
2023-03-27T00:19:12.684Z,5.37
2023-03-27T00:21:48.193Z,5.35
2023-03-27T00:24:20.881Z,5.34
2023-03-27T00:26:50.857Z,5.32
2023-03-27T00:29:21.065Z,5.32
2023-03-27T00:31:51.285Z,5.33
2023-03-27T00:34:21.190Z,5.31
2023-03-27T00:36:52.302Z,5.27
2023-03-27T00:39:25.105Z,5.23
2023-03-27T00:41:55.694Z,5.18
2023-03-27T00:44:31.378Z,5.20
2023-03-27T00:47:03.049Z,5.19
2023-03-27T00:49:37.188Z,5.23
2023-03-27T00:52:13.257Z,5.18
2023-03-27T00:54:47.451Z,5.19
2023-03-27T00:57:22.212Z,5.19
2023-03-27T00:59:57.535Z,5.09
2023-03-27T01:02:27.775Z,5.11
2023-03-27T01:04:58.141Z,5.12
2023-03-27T01:07:28.847Z,5.13
2023-03-27T01:10:02.077Z,5.03
2023-03-27T01:12:41.474Z,5.01
2023-03-27T01:15:24.958Z,4.98
2023-03-27T01:18:11.069Z,4.97
2023-03-27T01:21:03.981Z,4.96
2023-03-27T01:24:20.019Z,4.92
2023-03-27T01:27:03.091Z,4.83
2023-03-27T01:29:42.036Z,4.82
2023-03-27T01:32:35.212Z,4.79
2023-03-27T01:35:40.725Z,4.79
2023-03-27T01:38:41.249Z,4.79
2023-03-27T01:41:19.594Z,4.79
2023-03-27T01:43:56.360Z,4.78
2023-03-27T01:46:29.869Z,4.77
2023-03-27T01:49:05.444Z,4.80
2023-03-27T01:51:39.668Z,4.79
2023-03-27T01:54:17.914Z,4.79
2023-03-27T01:56:55.458Z,4.85
2023-03-27T01:59:28.911Z,4.88
2023-03-27T02:02:03.673Z,4.88
2023-03-27T02:04:41.515Z,4.87
2023-03-27T02:07:18.952Z,4.89
2023-03-27T02:09:53.009Z,4.88
2023-03-27T02:12:31.150Z,4.83
2023-03-27T02:15:24.693Z,4.85
2023-03-27T02:18:05.132Z,4.80
2023-03-27T02:20:36.637Z,4.75
2023-03-27T02:23:07.867Z,4.74
2023-03-27T02:25:39.949Z,4.71
2023-03-27T02:28:29.424Z,4.65
2023-03-27T02:31:32.424Z,4.64
2023-03-27T02:34:08.191Z,4.62
2023-03-27T02:36:47.994Z,4.61
2023-03-27T02:39:23.195Z,4.62
2023-03-27T02:41:57.750Z,4.58
2023-03-27T02:44:35.710Z,4.55
2023-03-27T02:47:22.553Z,4.54
2023-03-27T02:49:57.340Z,4.49
2023-03-27T02:52:34.918Z,4.45
2023-03-27T02:55:09.626Z,4.45
2023-03-27T02:57:51.961Z,4.46
2023-03-27T03:00:29.808Z,4.47
2023-03-27T03:03:05.807Z,4.51
2023-03-27T03:05:37.459Z,4.55
2023-03-27T03:08:10.390Z,4.59
2023-03-27T03:10:45.522Z,4.54
2023-03-27T03:13:15.570Z,4.47
2023-03-27T03:15:50.471Z,4.47
2023-03-27T03:18:20.767Z,4.45
2023-03-27T03:20:51.755Z,4.45
2023-03-27T03:23:22.006Z,4.48
2023-03-27T03:25:57.111Z,4.49
2023-03-27T03:28:28.836Z,4.51
2023-03-27T03:31:02.953Z,4.47
2023-03-27T03:33:33.058Z,4.49
2023-03-27T03:36:02.875Z,4.52
2023-03-27T03:38:37.837Z,4.55
2023-03-27T03:41:09.065Z,4.55
2023-03-27T03:43:38.941Z,4.58
2023-03-27T03:46:11.622Z,4.59
2023-03-27T03:48:41.693Z,4.60
2023-03-27T03:51:11.519Z,4.60
2023-03-27T03:53:41.420Z,4.59
2023-03-27T03:56:11.846Z,4.58
2023-03-27T03:58:41.711Z,4.56
2023-03-27T04:01:14.229Z,4.54
2023-03-27T04:03:44.373Z,4.59
2023-03-27T04:06:17.730Z,4.64
2023-03-27T04:08:50.662Z,4.68
2023-03-27T04:11:20.604Z,4.61
2023-03-27T04:13:50.536Z,4.63
2023-03-27T04:16:22.997Z,4.63
2023-03-27T04:18:54.625Z,4.63
2023-03-27T04:21:26.970Z,4.62
2023-03-27T04:24:02.558Z,4.60
2023-03-27T04:26:33.168Z,4.58
2023-03-27T04:29:02.946Z,4.58
2023-03-27T04:31:35.350Z,4.57
2023-03-27T04:34:05.257Z,4.56
2023-03-27T04:36:35.429Z,4.56
2023-03-27T04:39:05.340Z,4.55
2023-03-27T04:41:35.227Z,4.53
2023-03-27T04:44:05.612Z,4.50
2023-03-27T04:46:38.295Z,4.48
2023-03-27T04:49:08.337Z,4.47
2023-03-27T04:51:38.780Z,4.44
2023-03-27T04:54:08.912Z,4.41
2023-03-27T04:56:38.833Z,4.39
2023-03-27T04:59:09.125Z,4.41
2023-03-27T05:01:41.922Z,4.40
2023-03-27T05:04:11.858Z,4.41
2023-03-27T05:06:41.947Z,4.44
2023-03-27T05:09:12.219Z,4.49
2023-03-27T05:11:42.066Z,4.56
2023-03-27T05:14:11.881Z,4.63
2023-03-27T05:16:44.519Z,4.64
2023-03-27T05:19:14.742Z,4.67
2023-03-27T05:21:44.959Z,4.69
2023-03-27T05:24:14.889Z,4.69
2023-03-27T05:26:45.410Z,4.68
2023-03-27T05:29:15.614Z,4.68
2023-03-27T05:31:48.339Z,4.68
2023-03-27T05:34:19.442Z,4.67
2023-03-27T05:36:49.973Z,4.65
2023-03-27T05:39:20.017Z,4.65
2023-03-27T05:41:49.918Z,4.62
2023-03-27T05:44:19.845Z,4.57
2023-03-27T05:46:52.721Z,4.57
2023-03-27T05:49:22.603Z,4.57
2023-03-27T05:51:52.886Z,4.54
2023-03-27T05:54:22.792Z,4.56
2023-03-27T05:56:52.905Z,4.60
2023-03-27T05:59:23.786Z,4.59
2023-03-27T06:01:58.732Z,4.61
2023-03-27T06:04:29.016Z,4.63
2023-03-27T06:06:58.884Z,4.67
2023-03-27T06:09:28.785Z,4.72
2023-03-27T06:11:58.696Z,4.77
2023-03-27T06:14:28.741Z,4.83
2023-03-27T06:17:01.299Z,4.89
2023-03-27T06:19:31.265Z,4.96
2023-03-27T06:22:01.421Z,5.02
2023-03-27T06:24:31.361Z,5.03
2023-03-27T06:27:01.339Z,5.02
2023-03-27T06:29:31.622Z,5.02
2023-03-27T06:32:05.103Z,5.01
2023-03-27T06:34:35.103Z,5.04
2023-03-27T06:37:05.688Z,5.10
2023-03-27T06:39:35.938Z,5.13
2023-03-27T06:42:05.792Z,5.20
2023-03-27T06:44:35.960Z,5.31
2023-03-27T06:47:08.848Z,5.43
2023-03-27T06:49:38.888Z,5.60
2023-03-27T06:52:08.787Z,5.80
2023-03-27T06:54:38.861Z,6.06
2023-03-27T06:57:08.676Z,6.34
2023-03-27T06:59:38.763Z,6.62
2023-03-27T07:02:14.682Z,6.67
2023-03-27T07:04:54.128Z,6.75
2023-03-27T07:07:28.979Z,6.75
2023-03-27T07:09:59.537Z,6.85
2023-03-27T07:12:29.640Z,7.09
2023-03-27T07:15:02.404Z,7.36
2023-03-27T07:17:47.914Z,7.62
2023-03-27T07:20:19.713Z,7.92
2023-03-27T07:22:49.714Z,8.23
2023-03-27T07:25:19.804Z,8.18
2023-03-27T07:27:49.810Z,8.05
2023-03-27T07:30:19.957Z,8.06
2023-03-27T07:32:52.661Z,8.03
2023-03-27T07:35:22.969Z,7.82
2023-03-27T07:37:52.888Z,7.79
2023-03-27T07:40:36.938Z,7.68
2023-03-27T07:43:07.474Z,7.54
2023-03-27T07:45:39.152Z,7.49
2023-03-27T07:48:15.160Z,7.45
2023-03-27T07:50:45.870Z,7.39
2023-03-27T07:53:34.376Z,7.33
2023-03-27T07:56:05.704Z,7.30
2023-03-27T07:58:35.776Z,7.66
2023-03-27T08:01:06.522Z,7.95
2023-03-27T08:03:39.276Z,8.21
2023-03-27T08:06:10.660Z,8.52
2023-03-27T08:08:40.789Z,8.70
2023-03-27T08:11:23.101Z,8.91
2023-03-27T08:13:58.573Z,8.94
2023-03-27T08:16:30.301Z,9.02
2023-03-27T08:19:04.668Z,8.83
2023-03-27T08:21:35.344Z,8.77
2023-03-27T08:24:05.756Z,8.63
2023-03-27T08:26:36.506Z,8.88
2023-03-27T08:29:07.569Z,8.97
2023-03-27T08:31:39.840Z,8.98
2023-03-27T08:34:12.427Z,8.81
2023-03-27T08:36:42.282Z,8.75
2023-03-27T08:39:12.239Z,8.68
2023-03-27T08:41:52.059Z,8.71
2023-03-27T08:44:24.937Z,8.76
2023-03-27T08:46:59.126Z,8.81
2023-03-27T08:49:36.879Z,8.96
2023-03-27T08:52:14.990Z,8.97
2023-03-27T08:54:47.388Z,8.89
2023-03-27T08:57:21.918Z,8.76
2023-03-27T08:59:53.918Z,8.67
2023-03-27T09:02:33.330Z,8.62
2023-03-27T09:05:12.854Z,8.55
2023-03-27T09:07:54.541Z,8.36
2023-03-27T09:10:33.351Z,8.35
2023-03-27T09:13:11.636Z,8.42
2023-03-27T09:15:49.755Z,8.42
2023-03-27T09:18:24.504Z,8.50
2023-03-27T09:21:00.825Z,8.58
2023-03-27T09:23:36.411Z,8.81
2023-03-27T09:26:12.898Z,8.89
2023-03-27T09:28:51.913Z,9.16
2023-03-27T09:31:29.479Z,9.31
2023-03-27T09:34:11.570Z,9.48
2023-03-27T09:36:44.862Z,9.68
2023-03-27T09:39:22.166Z,9.69
2023-03-27T09:41:55.596Z,9.78
2023-03-27T09:44:28.808Z,9.64
2023-03-27T09:47:04.589Z,9.61
2023-03-27T09:49:36.046Z,9.71
2023-03-27T09:52:08.525Z,9.98
2023-03-27T09:54:56.416Z,9.86
2023-03-27T09:57:34.189Z,9.99
2023-03-27T10:00:15.761Z,10.24
2023-03-27T10:02:46.116Z,10.36
2023-03-27T10:05:22.420Z,10.22
2023-03-27T10:07:54.913Z,10.38
2023-03-27T10:10:26.933Z,10.47
2023-03-27T10:13:00.175Z,10.67
2023-03-27T10:15:39.006Z,10.83
2023-03-27T10:18:27.485Z,10.82
2023-03-27T10:20:59.627Z,10.84
2023-03-27T10:23:43.188Z,10.47
2023-03-27T10:26:20.074Z,10.26
2023-03-27T10:28:52.009Z,10.45
2023-03-27T10:31:32.305Z,10.60
2023-03-27T10:34:06.171Z,10.91
2023-03-27T10:36:37.647Z,11.18
2023-03-27T10:39:15.653Z,11.20
2023-03-27T10:41:45.543Z,11.45
2023-03-27T10:44:20.450Z,11.42
2023-03-27T10:46:50.518Z,11.36
2023-03-27T10:49:31.737Z,11.49
2023-03-27T10:52:10.416Z,11.44
2023-03-27T10:54:51.360Z,11.49
2023-03-27T10:57:27.064Z,11.48
2023-03-27T11:00:07.468Z,10.96
2023-03-27T11:02:43.104Z,10.53
2023-03-27T11:05:15.613Z,9.98
2023-03-27T11:07:49.885Z,9.57
2023-03-27T11:10:25.781Z,9.42
2023-03-27T11:13:01.839Z,9.48
2023-03-27T11:15:37.161Z,9.48
2023-03-27T11:18:16.228Z,9.55
2023-03-27T11:20:52.038Z,9.78
2023-03-27T11:23:29.049Z,10.07
2023-03-27T11:26:04.249Z,10.27
2023-03-27T11:28:43.180Z,10.47
2023-03-27T11:31:21.757Z,10.75
2023-03-27T11:33:55.992Z,10.92
2023-03-27T11:36:40.011Z,11.02
2023-03-27T11:39:19.259Z,11.24
2023-03-27T11:41:55.334Z,11.42
2023-03-27T11:44:30.587Z,11.40
2023-03-27T11:47:16.612Z,11.30
2023-03-27T11:50:11.716Z,11.16
2023-03-27T11:52:55.618Z,10.99
2023-03-27T11:55:32.672Z,10.88
2023-03-27T11:58:23.852Z,10.79
2023-03-27T12:01:02.449Z,10.69
2023-03-27T12:03:53.085Z,10.63
2023-03-27T12:06:32.546Z,10.72
2023-03-27T12:09:18.608Z,10.91
2023-03-27T12:11:52.415Z,11.06
2023-03-27T12:14:47.089Z,10.75
2023-03-27T12:17:38.140Z,10.69
2023-03-27T12:20:52.828Z,10.75
2023-03-27T12:23:48.260Z,10.70
2023-03-27T12:26:42.219Z,10.80
2023-03-27T12:29:25.100Z,10.80
2023-03-27T12:32:23.811Z,10.68
2023-03-27T12:34:58.500Z,10.83
2023-03-27T12:37:31.965Z,10.88
2023-03-27T12:40:10.672Z,10.89
2023-03-27T12:42:45.766Z,10.93
2023-03-27T12:45:22.588Z,11.03
2023-03-27T12:48:26.223Z,10.92
2023-03-27T12:51:01.175Z,11.00
2023-03-27T12:53:50.533Z,11.12
2023-03-27T12:56:39.062Z,11.28
2023-03-27T12:59:24.007Z,10.90
2023-03-27T13:02:27.049Z,10.34
2023-03-27T13:05:27.310Z,9.86
2023-03-27T13:08:11.951Z,9.19
2023-03-27T13:10:55.921Z,8.82
2023-03-27T13:13:52.250Z,8.65
2023-03-27T13:16:40.599Z,8.64
2023-03-27T13:19:29.213Z,8.55
2023-03-27T13:22:15.928Z,8.62
2023-03-27T13:25:01.133Z,8.77
2023-03-27T13:27:44.220Z,8.69
2023-03-27T13:30:44.001Z,8.69
2023-03-27T13:33:19.238Z,8.67
2023-03-27T13:36:05.993Z,8.71
2023-03-27T13:39:08.576Z,8.67
2023-03-27T13:41:57.830Z,8.71
2023-03-27T13:44:47.352Z,8.80
2023-03-27T13:47:50.984Z,8.66
2023-03-27T13:50:54.667Z,8.76
2023-03-27T13:53:45.848Z,8.88
2023-03-27T13:56:46.691Z,8.99
2023-03-27T13:59:29.682Z,9.23
2023-03-27T14:02:20.352Z,9.28
2023-03-27T14:05:17.996Z,9.35
2023-03-27T14:08:13.306Z,9.35
2023-03-27T14:11:11.379Z,9.60
2023-03-27T14:13:59.962Z,9.81
2023-03-27T14:16:50.645Z,9.97
2023-03-27T14:19:44.874Z,9.99
2023-03-27T14:22:20.229Z,10.12
2023-03-27T14:24:56.234Z,10.06
2023-03-27T14:27:27.954Z,10.04
2023-03-27T14:30:09.686Z,10.18
2023-03-27T14:32:40.304Z,10.32
2023-03-27T14:35:27.823Z,10.53
2023-03-27T14:38:00.315Z,10.70
2023-03-27T14:40:33.977Z,10.58
2023-03-27T14:43:05.758Z,10.26
2023-03-27T14:45:41.032Z,10.02
2023-03-27T14:48:19.411Z,10.03
2023-03-27T14:50:50.581Z,10.03
2023-03-27T14:53:26.259Z,10.00
2023-03-27T14:55:57.902Z,9.93
2023-03-27T14:58:28.820Z,9.86
2023-03-27T15:01:04.327Z,9.77
2023-03-27T15:03:35.739Z,9.81
2023-03-27T15:06:08.329Z,9.85
2023-03-27T15:08:39.890Z,9.92
2023-03-27T15:11:14.424Z,9.87
2023-03-27T15:13:48.249Z,9.96
2023-03-27T15:16:25.245Z,9.89
2023-03-27T15:19:12.839Z,9.99
2023-03-27T15:21:57.426Z,9.96
2023-03-27T15:24:37.044Z,9.96
2023-03-27T15:27:07.714Z,10.07
2023-03-27T15:29:43.296Z,9.95
2023-03-27T15:32:22.333Z,10.04
2023-03-27T15:34:58.230Z,10.07
2023-03-27T15:37:30.976Z,10.06
2023-03-27T15:40:33.222Z,9.93
2023-03-27T15:43:11.943Z,10.02
2023-03-27T15:45:44.463Z,10.05
2023-03-27T15:48:25.800Z,9.96
2023-03-27T15:51:01.562Z,9.86
2023-03-27T15:53:36.896Z,9.82
2023-03-27T15:56:10.651Z,9.80
2023-03-27T15:58:49.728Z,9.73
2023-03-27T16:01:23.251Z,9.85
2023-03-27T16:03:58.522Z,9.93
2023-03-27T16:06:33.698Z,9.87
2023-03-27T16:09:05.475Z,9.82
2023-03-27T16:11:37.876Z,9.73
2023-03-27T16:14:07.969Z,9.56
2023-03-27T16:16:37.913Z,9.51
2023-03-27T16:19:15.751Z,9.43
2023-03-27T16:21:59.197Z,9.30
2023-03-27T16:24:29.163Z,9.23
2023-03-27T16:26:59.280Z,9.25
2023-03-27T16:29:29.243Z,9.14
2023-03-27T16:31:59.355Z,9.06
2023-03-27T16:34:31.980Z,9.03
2023-03-27T16:37:02.300Z,9.06
2023-03-27T16:39:32.355Z,9.04
2023-03-27T16:42:02.199Z,9.03
2023-03-27T16:44:32.178Z,9.02
2023-03-27T16:47:02.152Z,8.85
2023-03-27T16:49:34.732Z,8.76
2023-03-27T16:52:04.853Z,8.81
2023-03-27T16:54:35.058Z,8.73
2023-03-27T16:57:05.059Z,8.75
2023-03-27T16:59:35.235Z,8.68
2023-03-27T17:02:05.782Z,8.62
2023-03-27T17:04:38.713Z,8.57
2023-03-27T17:07:09.580Z,8.59
2023-03-27T17:09:41.041Z,8.58
2023-03-27T17:12:11.927Z,8.58
2023-03-27T17:14:41.922Z,8.55
2023-03-27T17:17:12.334Z,8.59
2023-03-27T17:19:45.014Z,8.52
2023-03-27T17:22:16.087Z,8.53
2023-03-27T17:24:56.089Z,8.47
2023-03-27T17:27:27.726Z,8.36
2023-03-27T17:29:58.481Z,8.38
2023-03-27T17:32:29.442Z,8.32
2023-03-27T17:35:04.693Z,8.30
2023-03-27T17:37:34.857Z,8.28
2023-03-27T17:40:09.843Z,8.21
2023-03-27T17:42:40.111Z,8.24
2023-03-27T17:45:11.229Z,8.26
2023-03-27T17:47:41.515Z,8.31
2023-03-27T17:50:14.466Z,8.37
2023-03-27T17:52:44.511Z,8.38
2023-03-27T17:55:14.636Z,8.36
2023-03-27T17:57:51.045Z,8.37
2023-03-27T18:00:28.832Z,8.27
2023-03-27T18:02:58.936Z,8.22
2023-03-27T18:05:31.556Z,8.16
2023-03-27T18:08:01.493Z,8.08
2023-03-27T18:10:32.607Z,8.07
2023-03-27T18:13:04.089Z,7.91
2023-03-27T18:15:34.045Z,7.89
2023-03-27T18:18:03.972Z,7.85
2023-03-27T18:20:36.584Z,7.82
2023-03-27T18:23:06.494Z,7.80
2023-03-27T18:25:42.125Z,7.74
2023-03-27T18:28:12.717Z,7.72
2023-03-27T18:30:44.439Z,7.67
2023-03-27T18:33:14.982Z,7.66
2023-03-27T18:35:47.848Z,7.63
2023-03-27T18:38:18.435Z,7.63
2023-03-27T18:40:48.421Z,7.62
2023-03-27T18:43:18.512Z,7.60
2023-03-27T18:45:48.748Z,7.62
2023-03-27T18:48:18.785Z,7.58
2023-03-27T18:50:56.283Z,7.55
2023-03-27T18:53:26.953Z,7.60
2023-03-27T18:55:58.912Z,7.62
2023-03-27T18:58:29.661Z,7.59
2023-03-27T19:01:02.794Z,7.58
2023-03-27T19:03:35.152Z,7.57
2023-03-27T19:06:11.999Z,7.52
2023-03-27T19:08:42.756Z,7.48
2023-03-27T19:11:13.672Z,7.40
2023-03-27T19:13:43.526Z,7.36
2023-03-27T19:16:13.789Z,7.33
2023-03-27T19:18:45.078Z,7.28
2023-03-27T19:21:19.524Z,7.25
2023-03-27T19:23:49.610Z,7.22
2023-03-27T19:26:20.659Z,7.16
2023-03-27T19:28:50.623Z,7.12
2023-03-27T19:31:20.663Z,7.10
2023-03-27T19:33:50.652Z,7.05
2023-03-27T19:36:25.087Z,7.00
2023-03-27T19:38:55.019Z,6.96
2023-03-27T19:41:25.441Z,6.93
2023-03-27T19:43:57.218Z,6.93
2023-03-27T19:46:29.400Z,6.95
2023-03-27T19:48:59.503Z,6.99
2023-03-27T19:51:32.176Z,7.00
2023-03-27T19:54:02.131Z,6.97
2023-03-27T19:56:32.909Z,6.95
2023-03-27T19:59:03.810Z,6.90
2023-03-27T20:01:33.815Z,6.84
2023-03-27T20:04:04.012Z,6.79
2023-03-27T20:06:38.345Z,6.76
2023-03-27T20:09:09.308Z,6.73
2023-03-27T20:11:39.568Z,6.71
2023-03-27T20:14:09.695Z,6.71
2023-03-27T20:16:40.453Z,6.67
2023-03-27T20:19:11.070Z,6.64
2023-03-27T20:21:44.397Z,6.58
2023-03-27T20:24:18.492Z,6.56
2023-03-27T20:26:51.453Z,6.54
2023-03-27T20:29:24.499Z,6.49
2023-03-27T20:31:54.510Z,6.47
2023-03-27T20:34:24.735Z,6.43
2023-03-27T20:36:59.287Z,6.41
2023-03-27T20:39:29.885Z,6.39
2023-03-27T20:42:01.105Z,6.38
2023-03-27T20:44:35.359Z,6.39
2023-03-27T20:47:12.453Z,6.41
2023-03-27T20:49:43.275Z,6.43
2023-03-27T20:52:18.794Z,6.44
2023-03-27T20:54:49.012Z,6.37
2023-03-27T20:57:18.973Z,6.32
2023-03-27T20:59:48.946Z,6.29
2023-03-27T21:02:21.290Z,6.26
2023-03-27T21:04:54.003Z,6.22
2023-03-27T21:07:26.579Z,6.18
2023-03-27T21:09:56.698Z,6.14
2023-03-27T21:12:26.845Z,6.11
2023-03-27T21:14:56.769Z,6.08
2023-03-27T21:17:26.692Z,6.03
2023-03-27T21:19:56.701Z,6.01
2023-03-27T21:22:29.213Z,5.98
2023-03-27T21:24:59.073Z,5.96
2023-03-27T21:27:30.684Z,5.96
2023-03-27T21:30:00.612Z,5.94
2023-03-27T21:32:30.739Z,5.95
2023-03-27T21:35:00.662Z,5.95
2023-03-27T21:37:33.572Z,5.93
2023-03-27T21:40:04.912Z,5.90
2023-03-27T21:42:35.046Z,5.85
2023-03-27T21:45:05.815Z,5.84
2023-03-27T21:47:46.659Z,5.87
2023-03-27T21:50:17.382Z,5.86
2023-03-27T21:52:50.005Z,5.84
2023-03-27T21:55:20.250Z,5.84
2023-03-27T21:57:50.245Z,5.84
2023-03-27T22:00:21.023Z,5.78
2023-03-27T22:02:51.317Z,5.76
2023-03-27T22:05:21.863Z,5.73
2023-03-27T22:07:54.433Z,5.69
2023-03-27T22:10:24.429Z,5.65
2023-03-27T22:12:54.374Z,5.64
2023-03-27T22:15:24.769Z,5.64
2023-03-27T22:17:54.888Z,5.63
2023-03-27T22:20:25.957Z,5.58
2023-03-27T22:22:58.517Z,5.55
2023-03-27T22:25:28.367Z,5.52
2023-03-27T22:28:00.037Z,5.50
2023-03-27T22:30:31.743Z,5.47
2023-03-27T22:33:01.573Z,5.42
2023-03-27T22:35:31.795Z,5.42
2023-03-27T22:38:04.819Z,5.38
2023-03-27T22:40:34.751Z,5.32
2023-03-27T22:43:04.545Z,5.33
2023-03-27T22:45:34.660Z,5.32
2023-03-27T22:48:05.871Z,5.35
2023-03-27T22:50:36.496Z,5.37
2023-03-27T22:53:09.057Z,5.37
2023-03-27T22:55:39.015Z,5.35
2023-03-27T22:58:08.988Z,5.34
2023-03-27T23:00:39.148Z,5.30
2023-03-27T23:03:09.273Z,5.27
2023-03-27T23:05:42.128Z,5.22
2023-03-27T23:08:24.860Z,5.19
2023-03-27T23:10:59.143Z,5.15
2023-03-27T23:13:30.716Z,5.12
2023-03-27T23:16:01.469Z,5.08
2023-03-27T23:18:31.737Z,5.08
2023-03-27T23:21:02.915Z,5.06
2023-03-27T23:23:37.165Z,5.06
2023-03-27T23:26:08.189Z,5.05
2023-03-27T23:28:42.785Z,5.03
2023-03-27T23:31:15.896Z,5.02
2023-03-27T23:33:47.935Z,4.99
2023-03-27T23:36:20.105Z,4.97
2023-03-27T23:38:54.309Z,4.93
2023-03-27T23:41:24.684Z,4.91
2023-03-27T23:43:54.670Z,4.90
2023-03-27T23:46:24.622Z,4.88
2023-03-27T23:48:54.612Z,4.88
2023-03-27T23:51:27.304Z,4.89
2023-03-27T23:53:59.972Z,4.90
2023-03-27T23:56:29.956Z,4.90
2023-03-27T23:59:00.071Z,4.90
